createdAt,value
2023-03-22T00:01:11.296Z,98798.03
2023-03-22T00:03:38.812Z,98789.72
2023-03-22T00:06:06.224Z,98791.34
2023-03-22T00:08:35.899Z,98785.16
2023-03-22T00:11:03.816Z,98788.06
2023-03-22T00:13:30.903Z,98785.38
2023-03-22T00:15:59.755Z,98779.38
2023-03-22T00:18:26.776Z,98778.81
2023-03-22T00:20:55.813Z,98779.63
2023-03-22T00:23:23.388Z,98779.88
2023-03-22T00:25:52.149Z,98781.50
2023-03-22T00:28:20.563Z,98786.06
2023-03-22T00:30:55.856Z,98783.06
2023-03-22T00:33:23.134Z,98786.53
2023-03-22T00:35:51.389Z,98781.97
2023-03-22T00:38:19.681Z,98781.41
2023-03-22T00:40:46.979Z,98784.13
2023-03-22T00:43:16.553Z,98773.31
2023-03-22T00:45:44.144Z,98771.66
2023-03-22T00:48:12.355Z,98769.81
2023-03-22T00:50:39.802Z,98765.94
2023-03-22T00:53:07.130Z,98763.00
2023-03-22T00:55:34.481Z,98768.41
2023-03-22T00:58:02.513Z,98760.09
2023-03-22T01:00:32.086Z,98761.13
2023-03-22T01:02:59.861Z,98761.38
2023-03-22T01:05:28.307Z,98763.25
2023-03-22T01:07:55.749Z,98773.19
2023-03-22T01:10:23.152Z,98765.09
2023-03-22T01:12:50.195Z,98775.09
2023-03-22T01:15:17.263Z,98760.22
2023-03-22T01:17:45.687Z,98757.53
2023-03-22T01:20:13.254Z,98759.38
2023-03-22T01:22:40.803Z,98754.81
2023-03-22T01:25:08.781Z,98758.56
2023-03-22T01:27:36.487Z,98759.38
2023-03-22T01:30:04.180Z,98747.53
2023-03-22T01:32:31.136Z,98754.81
2023-03-22T01:35:00.089Z,98746.13
2023-03-22T01:37:29.232Z,98745.06
2023-03-22T01:39:56.481Z,98748.28
2023-03-22T01:42:24.810Z,98745.81
2023-03-22T01:45:32.656Z,98748.28
2023-03-22T01:48:04.508Z,98739.59
2023-03-22T01:50:39.474Z,98744.41
2023-03-22T01:53:09.570Z,98739.81
2023-03-22T01:55:38.205Z,98741.72
2023-03-22T01:58:09.813Z,98749.31
2023-03-22T02:00:50.605Z,98747.66
2023-03-22T02:03:48.609Z,98744.63
2023-03-22T02:06:17.666Z,98736.78
2023-03-22T02:08:46.950Z,98739.00
2023-03-22T02:11:26.026Z,98734.44
2023-03-22T02:14:13.496Z,98734.66
2023-03-22T02:17:02.961Z,98733.84
2023-03-22T02:20:17.770Z,98727.63
2023-03-22T02:23:19.914Z,98728.94
2023-03-22T02:26:31.506Z,98722.94
2023-03-22T02:29:01.552Z,98727.31
2023-03-22T02:31:57.867Z,98721.06
2023-03-22T02:35:09.424Z,98721.31
2023-03-22T02:38:01.525Z,98724.25
2023-03-22T02:40:34.191Z,98721.53
2023-03-22T02:43:13.482Z,98721.53
2023-03-22T02:45:47.400Z,98722.63
2023-03-22T02:48:19.005Z,98712.44
2023-03-22T02:50:52.786Z,98708.06
2023-03-22T02:53:24.206Z,98712.66
2023-03-22T02:55:55.547Z,98701.66
2023-03-22T02:58:27.269Z,98702.91
2023-03-22T03:00:59.586Z,98696.94
2023-03-22T03:03:30.155Z,98702.13
2023-03-22T03:06:00.422Z,98694.22
2023-03-22T03:08:29.217Z,98688.00
2023-03-22T03:10:58.516Z,98687.81
2023-03-22T03:13:25.732Z,98691.34
2023-03-22T03:15:58.677Z,98689.66
2023-03-22T03:18:38.497Z,98689.66
2023-03-22T03:21:17.164Z,98700.44
2023-03-22T03:23:51.984Z,98698.78
2023-03-22T03:26:29.887Z,98694.47
2023-03-22T03:29:01.015Z,98692.59
2023-03-22T03:31:34.747Z,98689.91
2023-03-22T03:34:10.958Z,98681.00
2023-03-22T03:36:42.528Z,98679.34
2023-03-22T03:39:15.844Z,98685.56
2023-03-22T03:41:50.262Z,98682.06
2023-03-22T03:44:19.417Z,98685.56
2023-03-22T03:46:47.651Z,98683.13
2023-03-22T03:49:17.240Z,98682.53
2023-03-22T03:51:50.337Z,98681.69
2023-03-22T03:54:18.030Z,98677.97
2023-03-22T03:56:47.802Z,98679.81
2023-03-22T03:59:16.163Z,98680.66
2023-03-22T04:01:50.557Z,98683.59
2023-03-22T04:04:27.439Z,98690.59
2023-03-22T04:07:04.922Z,98696.00
2023-03-22T04:09:35.596Z,98704.06
2023-03-22T04:12:15.376Z,98696.47
2023-03-22T04:14:46.999Z,98698.91
2023-03-22T04:17:21.580Z,98707.25
2023-03-22T04:19:49.453Z,98707.47
2023-03-22T04:22:18.478Z,98709.94
2023-03-22T04:24:50.083Z,98704.53
2023-03-22T04:27:22.490Z,98708.31
2023-03-22T04:30:01.103Z,98696.97
2023-03-22T04:32:47.585Z,98695.06
2023-03-22T04:35:16.110Z,98688.88
2023-03-22T04:37:43.342Z,98687.22
2023-03-22T04:40:16.722Z,98681.81
2023-03-22T04:43:15.795Z,98670.25
2023-03-22T04:45:51.361Z,98681.25
2023-03-22T04:48:23.639Z,98665.88
2023-03-22T04:50:53.408Z,98667.56
2023-03-22T04:53:27.412Z,98661.34
2023-03-22T04:55:58.804Z,98658.88
2023-03-22T04:58:28.899Z,98659.69
2023-03-22T05:00:55.998Z,98668.84
2023-03-22T05:03:23.954Z,98658.88
2023-03-22T05:05:53.734Z,98661.81
2023-03-22T05:08:26.485Z,98661.56
2023-03-22T05:10:54.040Z,98659.69
2023-03-22T05:13:22.742Z,98662.41
2023-03-22T05:15:52.200Z,98666.16
2023-03-22T05:18:27.751Z,98665.31
2023-03-22T05:21:00.062Z,98664.50
2023-03-22T05:23:27.420Z,98666.38
2023-03-22T05:26:02.351Z,98659.94
2023-03-22T05:28:29.504Z,98652.09
2023-03-22T05:31:14.901Z,98661.22
2023-03-22T05:33:47.003Z,98663.94
2023-03-22T05:36:18.245Z,98662.28
2023-03-22T05:39:03.789Z,98666.84
2023-03-22T05:41:36.435Z,98665.22
2023-03-22T05:44:04.433Z,98662.28
2023-03-22T05:46:33.245Z,98665.56
2023-03-22T05:49:20.268Z,98667.31
2023-03-22T05:51:47.412Z,98673.88
2023-03-22T05:54:16.098Z,98670.44
2023-03-22T05:56:48.754Z,98666.25
2023-03-22T05:59:16.218Z,98664.72
2023-03-22T06:01:45.774Z,98676.44
2023-03-22T06:04:18.916Z,98668.66
2023-03-22T06:06:57.843Z,98665.28
2023-03-22T06:09:47.107Z,98667.25
2023-03-22T06:12:22.709Z,98668.97
2023-03-22T06:14:55.273Z,98670.97
2023-03-22T06:17:46.359Z,98667.28
2023-03-22T06:20:17.427Z,98670.91
2023-03-22T06:22:51.700Z,98662.13
2023-03-22T06:25:19.173Z,98663.59
2023-03-22T06:27:48.535Z,98665.56
2023-03-22T06:30:15.945Z,98662.13
2023-03-22T06:33:04.676Z,98662.28
2023-03-22T06:35:34.733Z,98666.94
2023-03-22T06:38:02.779Z,98664.81
2023-03-22T06:40:30.298Z,98675.94
2023-03-22T06:42:57.569Z,98678.41
2023-03-22T06:45:25.051Z,98668.44
2023-03-22T06:47:52.062Z,98681.09
2023-03-22T06:50:31.460Z,98678.16
2023-03-22T06:53:06.509Z,98672.16
2023-03-22T06:55:35.033Z,98677.56
2023-03-22T10:40:34.148Z,98616.34
2023-03-22T10:43:03.623Z,98615.75
2023-03-22T10:45:33.536Z,98610.50
2023-03-22T10:48:03.711Z,98604.78
2023-03-22T10:50:33.810Z,98605.56
2023-03-22T10:53:05.900Z,98601.66
2023-03-22T10:55:40.605Z,98599.91
2023-03-22T10:58:13.865Z,98602.03
2023-03-22T11:00:45.027Z,98597.31
2023-03-22T11:03:26.790Z,98604.66
2023-03-22T11:05:59.370Z,98600.06
2023-03-22T11:08:26.364Z,98602.16
2023-03-22T11:10:59.198Z,98596.16
2023-03-22T11:13:26.551Z,98595.19
2023-03-22T11:15:58.894Z,98593.97
2023-03-22T11:18:31.465Z,98591.94
2023-03-22T11:21:00.744Z,98596.41
2023-03-22T11:23:32.359Z,98586.75
2023-03-22T11:26:07.803Z,98582.53
2023-03-22T11:28:37.049Z,98577.69
2023-03-22T11:31:07.131Z,98579.91
2023-03-22T11:33:34.765Z,98575.41
2023-03-22T11:36:03.640Z,98567.31
2023-03-22T11:38:36.780Z,98568.13
2023-03-22T11:41:07.890Z,98564.38
2023-03-22T11:43:37.311Z,98566.00
2023-03-22T11:46:05.784Z,98559.78
2023-03-22T11:48:34.116Z,98559.78
2023-03-22T11:51:06.895Z,98563.06
2023-03-22T11:53:37.332Z,98557.44
2023-03-22T11:56:07.809Z,98549.34
2023-03-22T11:58:54.934Z,98556.94
2023-03-22T12:01:30.039Z,98557.16
2023-03-22T12:03:57.456Z,98560.69
2023-03-22T12:06:27.794Z,98556.38
2023-03-22T12:08:58.477Z,98551.78
2023-03-22T12:11:31.815Z,98550.97
2023-03-22T12:14:01.770Z,98548.94
2023-03-22T12:16:36.219Z,98543.44
2023-03-22T12:19:13.247Z,98542.88
2023-03-22T12:21:40.836Z,98535.00
2023-03-22T12:24:22.778Z,98538.53
2023-03-22T12:26:54.421Z,98531.53
2023-03-22T12:29:21.781Z,98534.78
2023-03-22T12:31:56.881Z,98535.59
2023-03-22T12:34:32.760Z,98519.19
2023-03-22T12:37:03.489Z,98523.50
2023-03-22T12:39:35.197Z,98517.03
2023-03-22T12:42:11.618Z,98517.88
2023-03-22T12:44:42.310Z,98514.34
2023-03-22T12:47:19.155Z,98511.66
2023-03-22T12:49:52.720Z,98507.31
2023-03-22T12:52:29.769Z,98506.25
2023-03-22T12:55:01.460Z,98505.19
2023-03-22T12:57:29.866Z,98510.56
2023-03-22T13:00:00.752Z,98503.06
2023-03-22T13:02:31.269Z,98500.38
2023-03-22T13:04:59.248Z,98506.59
2023-03-22T13:07:37.369Z,98506.59
2023-03-22T13:10:38.972Z,98493.91
2023-03-22T13:13:14.708Z,98496.63
2023-03-22T13:15:57.849Z,98495.53
2023-03-22T13:18:40.076Z,98487.72
2023-03-22T13:21:13.280Z,98488.28
2023-03-22T13:24:19.533Z,98486.66
2023-03-22T13:26:49.275Z,98482.06
2023-03-22T13:29:19.576Z,98475.63
2023-03-22T13:31:54.610Z,98482.66
2023-03-22T13:34:31.354Z,98477.25
2023-03-22T13:36:59.355Z,98467.28
2023-03-22T13:39:34.649Z,98470.78
2023-03-22T13:42:07.377Z,98468.09
2023-03-22T13:44:40.520Z,98458.91
2023-03-22T13:47:28.652Z,98467.00
2023-03-22T13:50:01.314Z,98459.75
2023-03-22T13:52:36.021Z,98456.81
2023-03-22T13:55:03.596Z,98455.75
2023-03-22T13:57:49.225Z,98454.94
2023-03-22T14:00:36.209Z,98456.81
2023-03-22T14:03:11.699Z,98455.19
2023-03-22T14:05:39.216Z,98457.88
2023-03-22T14:08:06.795Z,98459.50
2023-03-22T14:10:40.379Z,98451.16
2023-03-22T14:13:15.422Z,98446.84
2023-03-22T14:15:49.355Z,98457.38
2023-03-22T14:18:23.160Z,98459.56
2023-03-22T14:20:54.937Z,98455.03
